sensor_id;sensor_type;location;lat;lon;timestamp;P1;durP1;ratioP1;P2;durP2;ratioP2
48823;SDS011;34640;53.590;10.054;2024-03-08T00:02:41;28.60;;;12.48;;
48823;SDS011;34640;53.590;10.054;2024-03-08T00:05:17;28.10;;;12.13;;
48823;SDS011;34640;53.590;10.054;2024-03-08T00:07:50;31.02;;;12.30;;
48823;SDS011;34640;53.590;10.054;2024-03-08T00:10:26;28.50;;;13.35;;
48823;SDS011;34640;53.590;10.054;2024-03-08T00:13:02;30.48;;;13.15;;
48823;SDS011;34640;53.590;10.054;2024-03-08T00:15:36;28.58;;;13.10;;
48823;SDS011;34640;53.590;10.054;2024-03-08T00:18:10;29.02;;;11.90;;
48823;SDS011;34640;53.590;10.054;2024-03-08T00:20:44;29.80;;;12.15;;
48823;SDS011;34640;53.590;10.054;2024-03-08T00:23:18;32.08;;;13.40;;
48823;SDS011;34640;53.590;10.054;2024-03-08T00:25:53;27.20;;;12.95;;
48823;SDS011;34640;53.590;10.054;2024-03-08T00:28:26;30.58;;;13.27;;
48823;SDS011;34640;53.590;10.054;2024-03-08T00:30:59;32.58;;;12.77;;
48823;SDS011;34640;53.590;10.054;2024-03-08T00:33:32;31.63;;;11.55;;
48823;SDS011;34640;53.590;10.054;2024-03-08T00:36:06;29.67;;;12.52;;
48823;SDS011;34640;53.590;10.054;2024-03-08T00:38:40;29.70;;;13.15;;
48823;SDS011;34640;53.590;10.054;2024-03-08T00:41:14;27.27;;;12.40;;
48823;SDS011;34640;53.590;10.054;2024-03-08T00:43:48;29.70;;;13.88;;
48823;SDS011;34640;53.590;10.054;2024-03-08T00:46:21;25.38;;;12.07;;
48823;SDS011;34640;53.590;10.054;2024-03-08T00:48:56;29.58;;;12.52;;
48823;SDS011;34640;53.590;10.054;2024-03-08T00:51:29;29.20;;;12.40;;
48823;SDS011;34640;53.590;10.054;2024-03-08T00:54:02;30.23;;;12.65;;
48823;SDS011;34640;53.590;10.054;2024-03-08T00:56:37;30.48;;;12.77;;
48823;SDS011;34640;53.590;10.054;2024-03-08T00:59:11;32.08;;;13.13;;
48823;SDS011;34640;53.590;10.054;2024-03-08T01:01:46;31.05;;;13.25;;
48823;SDS011;34640;53.590;10.054;2024-03-08T01:04:20;32.40;;;13.98;;
48823;SDS011;34640;53.590;10.054;2024-03-08T01:06:54;24.67;;;11.88;;
48823;SDS011;34640;53.590;10.054;2024-03-08T01:09:28;28.77;;;12.32;;
48823;SDS011;34640;53.590;10.054;2024-03-08T01:12:02;33.33;;;13.27;;
48823;SDS011;34640;53.590;10.054;2024-03-08T01:14:36;36.08;;;14.02;;
48823;SDS011;34640;53.590;10.054;2024-03-08T01:17:11;31.15;;;13.52;;
48823;SDS011;34640;53.590;10.054;2024-03-08T01:19:44;32.65;;;13.20;;
48823;SDS011;34640;53.590;10.054;2024-03-08T01:22:17;28.40;;;13.10;;
48823;SDS011;34640;53.590;10.054;2024-03-08T01:24:50;32.80;;;14.15;;
48823;SDS011;34640;53.590;10.054;2024-03-08T01:27:26;30.92;;;12.27;;
48823;SDS011;34640;53.590;10.054;2024-03-08T01:29:59;26.30;;;13.00;;
48823;SDS011;34640;53.590;10.054;2024-03-08T01:32:33;36.03;;;13.68;;
48823;SDS011;34640;53.590;10.054;2024-03-08T01:35:07;32.22;;;13.35;;
48823;SDS011;34640;53.590;10.054;2024-03-08T01:37:42;28.40;;;13.10;;
48823;SDS011;34640;53.590;10.054;2024-03-08T01:40:15;31.17;;;13.23;;
48823;SDS011;34640;53.590;10.054;2024-03-08T01:42:51;26.58;;;12.43;;
48823;SDS011;34640;53.590;10.054;2024-03-08T01:45:26;35.08;;;14.35;;
48823;SDS011;34640;53.590;10.054;2024-03-08T01:47:59;38.17;;;12.93;;
48823;SDS011;34640;53.590;10.054;2024-03-08T01:50:32;29.40;;;12.77;;
48823;SDS011;34640;53.590;10.054;2024-03-08T01:53:09;37.15;;;13.90;;
48823;SDS011;34640;53.590;10.054;2024-03-08T01:55:44;32.30;;;12.82;;
48823;SDS011;34640;53.590;10.054;2024-03-08T01:58:18;29.52;;;12.85;;
48823;SDS011;34640;53.590;10.054;2024-03-08T02:00:54;29.27;;;12.88;;
48823;SDS011;34640;53.590;10.054;2024-03-08T02:03:29;28.10;;;12.75;;
48823;SDS011;34640;53.590;10.054;2024-03-08T02:06:04;29.95;;;14.23;;
48823;SDS011;34640;53.590;10.054;2024-03-08T02:08:42;29.40;;;12.88;;
48823;SDS011;34640;53.590;10.054;2024-03-08T02:11:16;32.58;;;13.10;;
48823;SDS011;34640;53.590;10.054;2024-03-08T02:13:52;28.17;;;12.70;;
48823;SDS011;34640;53.590;10.054;2024-03-08T02:16:25;29.85;;;13.82;;
48823;SDS011;34640;53.590;10.054;2024-03-08T02:18:59;32.30;;;13.52;;
48823;SDS011;34640;53.590;10.054;2024-03-08T02:21:34;30.80;;;13.15;;
48823;SDS011;34640;53.590;10.054;2024-03-08T02:24:09;35.35;;;14.40;;
48823;SDS011;34640;53.590;10.054;2024-03-08T02:26:43;29.33;;;13.73;;
48823;SDS011;34640;53.590;10.054;2024-03-08T02:29:17;31.92;;;13.63;;
48823;SDS011;34640;53.590;10.054;2024-03-08T02:31:51;38.30;;;14.52;;
48823;SDS011;34640;53.590;10.054;2024-03-08T02:34:27;32.92;;;13.35;;
48823;SDS011;34640;53.590;10.054;2024-03-08T02:37:03;31.70;;;13.48;;
48823;SDS011;34640;53.590;10.054;2024-03-08T02:39:38;37.30;;;14.23;;
48823;SDS011;34640;53.590;10.054;2024-03-08T02:42:11;34.63;;;13.23;;
48823;SDS011;34640;53.590;10.054;2024-03-08T02:44:46;27.98;;;13.30;;
48823;SDS011;34640;53.590;10.054;2024-03-08T02:47:20;33.85;;;14.40;;
48823;SDS011;34640;53.590;10.054;2024-03-08T02:49:58;31.52;;;12.55;;
48823;SDS011;34640;53.590;10.054;2024-03-08T02:52:34;30.95;;;13.55;;
48823;SDS011;34640;53.590;10.054;2024-03-08T02:55:10;36.38;;;13.98;;
48823;SDS011;34640;53.590;10.054;2024-03-08T02:57:47;30.60;;;12.82;;
48823;SDS011;34640;53.590;10.054;2024-03-08T03:00:21;31.75;;;13.90;;
48823;SDS011;34640;53.590;10.054;2024-03-08T03:02:56;28.83;;;13.32;;
48823;SDS011;34640;53.590;10.054;2024-03-08T03:05:29;32.47;;;13.65;;
48823;SDS011;34640;53.590;10.054;2024-03-08T03:08:04;29.30;;;13.82;;
48823;SDS011;34640;53.590;10.054;2024-03-08T03:10:43;36.72;;;13.55;;
48823;SDS011;34640;53.590;10.054;2024-03-08T03:13:19;33.22;;;13.70;;
48823;SDS011;34640;53.590;10.054;2024-03-08T03:15:55;31.80;;;14.25;;
48823;SDS011;34640;53.590;10.054;2024-03-08T03:18:30;36.65;;;14.02;;
48823;SDS011;34640;53.590;10.054;2024-03-08T03:21:04;32.75;;;13.85;;
48823;SDS011;34640;53.590;10.054;2024-03-08T03:23:41;31.05;;;13.38;;
48823;SDS011;34640;53.590;10.054;2024-03-08T03:26:14;34.35;;;13.82;;
48823;SDS011;34640;53.590;10.054;2024-03-08T03:28:49;31.65;;;14.30;;
48823;SDS011;34640;53.590;10.054;2024-03-08T03:31:22;36.38;;;14.13;;
48823;SDS011;34640;53.590;10.054;2024-03-08T03:33:57;32.67;;;14.43;;
48823;SDS011;34640;53.590;10.054;2024-03-08T03:36:35;32.17;;;14.00;;
48823;SDS011;34640;53.590;10.054;2024-03-08T03:39:11;34.67;;;14.43;;
48823;SDS011;34640;53.590;10.054;2024-03-08T03:41:48;35.00;;;14.52;;
48823;SDS011;34640;53.590;10.054;2024-03-08T03:44:23;33.65;;;14.57;;
48823;SDS011;34640;53.590;10.054;2024-03-08T03:46:58;33.20;;;13.88;;
48823;SDS011;34640;53.590;10.054;2024-03-08T03:49:31;33.83;;;14.63;;
48823;SDS011;34640;53.590;10.054;2024-03-08T03:52:05;34.60;;;13.52;;
48823;SDS011;34640;53.590;10.054;2024-03-08T03:54:40;34.67;;;13.10;;
48823;SDS011;34640;53.590;10.054;2024-03-08T03:57:13;37.42;;;14.05;;
48823;SDS011;34640;53.590;10.054;2024-03-08T03:59:47;32.20;;;14.23;;
48823;SDS011;34640;53.590;10.054;2024-03-08T04:02:20;38.92;;;15.65;;
48823;SDS011;34640;53.590;10.054;2024-03-08T04:04:53;35.20;;;14.75;;
48823;SDS011;34640;53.590;10.054;2024-03-08T04:07:33;33.90;;;15.98;;
48823;SDS011;34640;53.590;10.054;2024-03-08T04:10:08;35.70;;;14.38;;
48823;SDS011;34640;53.590;10.054;2024-03-08T04:12:43;34.13;;;15.10;;
48823;SDS011;34640;53.590;10.054;2024-03-08T04:15:17;33.10;;;14.50;;
48823;SDS011;34640;53.590;10.054;2024-03-08T04:17:51;34.13;;;14.43;;
48823;SDS011;34640;53.590;10.054;2024-03-08T04:20:25;34.03;;;14.70;;
48823;SDS011;34640;53.590;10.054;2024-03-08T04:23:00;37.85;;;15.13;;
48823;SDS011;34640;53.590;10.054;2024-03-08T04:25:35;31.58;;;13.55;;
48823;SDS011;34640;53.590;10.054;2024-03-08T04:28:09;31.92;;;13.98;;
48823;SDS011;34640;53.590;10.054;2024-03-08T04:30:43;42.78;;;16.23;;
48823;SDS011;34640;53.590;10.054;2024-03-08T04:33:17;36.45;;;15.30;;
48823;SDS011;34640;53.590;10.054;2024-03-08T04:35:52;35.65;;;14.05;;
48823;SDS011;34640;53.590;10.054;2024-03-08T04:38:25;33.95;;;15.07;;
48823;SDS011;34640;53.590;10.054;2024-03-08T04:41:02;39.83;;;14.85;;
48823;SDS011;34640;53.590;10.054;2024-03-08T04:43:35;34.88;;;13.32;;
48823;SDS011;34640;53.590;10.054;2024-03-08T04:46:08;32.40;;;14.88;;
48823;SDS011;34640;53.590;10.054;2024-03-08T04:48:41;38.92;;;15.70;;
48823;SDS011;34640;53.590;10.054;2024-03-08T04:51:15;37.88;;;15.25;;
48823;SDS011;34640;53.590;10.054;2024-03-08T04:53:51;30.88;;;13.57;;
48823;SDS011;34640;53.590;10.054;2024-03-08T04:56:26;31.67;;;13.80;;
48823;SDS011;34640;53.590;10.054;2024-03-08T04:58:59;38.08;;;15.15;;
48823;SDS011;34640;53.590;10.054;2024-03-08T05:01:32;36.45;;;13.95;;
48823;SDS011;34640;53.590;10.054;2024-03-08T05:04:08;36.75;;;14.18;;
48823;SDS011;34640;53.590;10.054;2024-03-08T05:06:42;37.38;;;14.15;;
48823;SDS011;34640;53.590;10.054;2024-03-08T05:09:16;35.92;;;15.23;;
48823;SDS011;34640;53.590;10.054;2024-03-08T05:11:52;36.38;;;15.40;;
48823;SDS011;34640;53.590;10.054;2024-03-08T05:14:29;36.47;;;14.82;;
48823;SDS011;34640;53.590;10.054;2024-03-08T05:17:02;37.35;;;14.77;;
48823;SDS011;34640;53.590;10.054;2024-03-08T05:19:38;36.90;;;15.23;;
48823;SDS011;34640;53.590;10.054;2024-03-08T05:22:11;31.20;;;13.90;;
48823;SDS011;34640;53.590;10.054;2024-03-08T05:24:45;33.97;;;15.23;;
48823;SDS011;34640;53.590;10.054;2024-03-08T05:27:20;35.10;;;14.65;;
48823;SDS011;34640;53.590;10.054;2024-03-08T05:29:54;39.90;;;16.67;;
48823;SDS011;34640;53.590;10.054;2024-03-08T05:32:27;36.20;;;15.63;;
48823;SDS011;34640;53.590;10.054;2024-03-08T05:35:02;43.15;;;15.15;;
48823;SDS011;34640;53.590;10.054;2024-03-08T05:37:38;39.88;;;15.73;;
48823;SDS011;34640;53.590;10.054;2024-03-08T05:40:12;38.58;;;15.25;;
48823;SDS011;34640;53.590;10.054;2024-03-08T05:42:51;46.50;;;15.50;;
48823;SDS011;34640;53.590;10.054;2024-03-08T05:45:24;36.10;;;14.68;;
48823;SDS011;34640;53.590;10.054;2024-03-08T05:47:58;36.45;;;14.82;;
48823;SDS011;34640;53.590;10.054;2024-03-08T05:50:31;43.00;;;14.68;;
48823;SDS011;34640;53.590;10.054;2024-03-08T05:53:06;39.10;;;14.85;;
48823;SDS011;34640;53.590;10.054;2024-03-08T05:55:39;35.53;;;14.50;;
48823;SDS011;34640;53.590;10.054;2024-03-08T05:58:14;37.20;;;14.70;;
48823;SDS011;34640;53.590;10.054;2024-03-08T06:00:47;37.75;;;14.77;;
48823;SDS011;34640;53.590;10.054;2024-03-08T06:03:24;33.90;;;15.43;;
48823;SDS011;34640;53.590;10.054;2024-03-08T06:05:57;44.38;;;16.05;;
48823;SDS011;34640;53.590;10.054;2024-03-08T06:08:30;37.35;;;14.65;;
48823;SDS011;34640;53.590;10.054;2024-03-08T06:11:04;38.88;;;15.10;;
48823;SDS011;34640;53.590;10.054;2024-03-08T06:13:40;36.63;;;14.57;;
48823;SDS011;34640;53.590;10.054;2024-03-08T06:16:15;40.08;;;15.90;;
48823;SDS011;34640;53.590;10.054;2024-03-08T06:18:50;44.25;;;15.77;;
48823;SDS011;34640;53.590;10.054;2024-03-08T06:21:23;37.83;;;14.82;;
48823;SDS011;34640;53.590;10.054;2024-03-08T06:23:57;36.50;;;16.42;;
48823;SDS011;34640;53.590;10.054;2024-03-08T06:26:30;36.75;;;14.82;;
48823;SDS011;34640;53.590;10.054;2024-03-08T06:29:09;37.13;;;15.40;;
48823;SDS011;34640;53.590;10.054;2024-03-08T06:31:45;38.92;;;14.93;;
48823;SDS011;34640;53.590;10.054;2024-03-08T06:34:24;38.95;;;15.90;;
48823;SDS011;34640;53.590;10.054;2024-03-08T06:36:57;41.88;;;16.20;;
48823;SDS011;34640;53.590;10.054;2024-03-08T06:39:32;42.55;;;15.50;;
48823;SDS011;34640;53.590;10.054;2024-03-08T06:42:07;31.73;;;15.20;;
48823;SDS011;34640;53.590;10.054;2024-03-08T06:44:43;35.80;;;15.35;;
48823;SDS011;34640;53.590;10.054;2024-03-08T06:47:20;38.00;;;16.15;;
48823;SDS011;34640;53.590;10.054;2024-03-08T06:49:57;34.47;;;14.98;;
48823;SDS011;34640;53.590;10.054;2024-03-08T06:52:30;39.25;;;16.70;;
48823;SDS011;34640;53.590;10.054;2024-03-08T06:55:04;37.00;;;15.60;;
48823;SDS011;34640;53.590;10.054;2024-03-08T06:57:38;39.40;;;16.50;;
48823;SDS011;34640;53.590;10.054;2024-03-08T07:00:13;37.13;;;15.38;;
48823;SDS011;34640;53.590;10.054;2024-03-08T07:02:51;38.80;;;16.20;;
48823;SDS011;34640;53.590;10.054;2024-03-08T07:05:25;39.58;;;16.08;;
48823;SDS011;34640;53.590;10.054;2024-03-08T07:08:02;42.90;;;17.50;;
48823;SDS011;34640;53.590;10.054;2024-03-08T07:10:35;41.20;;;16.83;;
48823;SDS011;34640;53.590;10.054;2024-03-08T07:13:09;34.67;;;15.52;;
48823;SDS011;34640;53.590;10.054;2024-03-08T07:15:43;37.00;;;16.25;;
48823;SDS011;34640;53.590;10.054;2024-03-08T07:18:17;41.90;;;17.45;;
48823;SDS011;34640;53.590;10.054;2024-03-08T07:20:50;38.25;;;15.68;;
48823;SDS011;34640;53.590;10.054;2024-03-08T07:23:23;43.35;;;16.52;;
48823;SDS011;34640;53.590;10.054;2024-03-08T07:26:15;42.33;;;16.40;;
48823;SDS011;34640;53.590;10.054;2024-03-08T07:28:50;37.65;;;16.05;;
48823;SDS011;34640;53.590;10.054;2024-03-08T07:31:25;35.17;;;15.77;;
48823;SDS011;34640;53.590;10.054;2024-03-08T07:34:16;35.58;;;15.30;;
48823;SDS011;34640;53.590;10.054;2024-03-08T07:36:49;37.97;;;15.20;;
48823;SDS011;34640;53.590;10.054;2024-03-08T07:39:22;39.88;;;17.52;;
48823;SDS011;34640;53.590;10.054;2024-03-08T07:41:59;38.35;;;16.10;;
48823;SDS011;34640;53.590;10.054;2024-03-08T07:44:32;38.03;;;16.00;;
48823;SDS011;34640;53.590;10.054;2024-03-08T07:47:07;35.88;;;16.02;;
48823;SDS011;34640;53.590;10.054;2024-03-08T07:49:41;35.03;;;15.80;;
48823;SDS011;34640;53.590;10.054;2024-03-08T07:52:15;36.08;;;15.75;;
48823;SDS011;34640;53.590;10.054;2024-03-08T07:54:49;40.10;;;16.75;;
48823;SDS011;34640;53.590;10.054;2024-03-08T07:57:22;35.65;;;15.77;;
48823;SDS011;34640;53.590;10.054;2024-03-08T07:59:57;35.05;;;15.98;;
48823;SDS011;34640;53.590;10.054;2024-03-08T08:02:31;38.28;;;16.50;;
48823;SDS011;34640;53.590;10.054;2024-03-08T08:05:11;40.97;;;16.98;;
48823;SDS011;34640;53.590;10.054;2024-03-08T08:07:45;41.80;;;16.63;;
48823;SDS011;34640;53.590;10.054;2024-03-08T08:10:23;39.03;;;17.00;;
48823;SDS011;34640;53.590;10.054;2024-03-08T08:12:58;39.33;;;16.88;;
48823;SDS011;34640;53.590;10.054;2024-03-08T08:15:32;37.30;;;15.57;;
48823;SDS011;34640;53.590;10.054;2024-03-08T08:18:07;44.50;;;17.05;;
48823;SDS011;34640;53.590;10.054;2024-03-08T08:20:41;38.95;;;16.38;;
48823;SDS011;34640;53.590;10.054;2024-03-08T08:23:14;38.20;;;16.08;;
48823;SDS011;34640;53.590;10.054;2024-03-08T08:25:47;44.08;;;18.02;;
48823;SDS011;34640;53.590;10.054;2024-03-08T08:28:21;38.47;;;16.60;;
48823;SDS011;34640;53.590;10.054;2024-03-08T08:30:57;36.78;;;15.85;;
48823;SDS011;34640;53.590;10.054;2024-03-08T08:33:32;38.53;;;16.42;;
48823;SDS011;34640;53.590;10.054;2024-03-08T08:36:07;39.63;;;16.17;;
48823;SDS011;34640;53.590;10.054;2024-03-08T08:38:42;39.00;;;17.13;;
48823;SDS011;34640;53.590;10.054;2024-03-08T08:41:18;38.58;;;16.73;;
48823;SDS011;34640;53.590;10.054;2024-03-08T08:43:51;36.25;;;16.73;;
48823;SDS011;34640;53.590;10.054;2024-03-08T08:46:39;41.70;;;17.95;;
48823;SDS011;34640;53.590;10.054;2024-03-08T08:49:14;37.53;;;16.88;;
48823;SDS011;34640;53.590;10.054;2024-03-08T08:51:52;43.85;;;18.40;;
48823;SDS011;34640;53.590;10.054;2024-03-08T08:54:29;40.08;;;17.95;;
48823;SDS011;34640;53.590;10.054;2024-03-08T08:57:03;41.05;;;17.13;;
48823;SDS011;34640;53.590;10.054;2024-03-08T08:59:39;39.60;;;17.17;;
48823;SDS011;34640;53.590;10.054;2024-03-08T09:02:14;40.97;;;17.50;;
48823;SDS011;34640;53.590;10.054;2024-03-08T09:04:51;41.53;;;17.52;;
48823;SDS011;34640;53.590;10.054;2024-03-08T09:07:24;44.38;;;18.63;;
48823;SDS011;34640;53.590;10.054;2024-03-08T09:09:58;37.42;;;16.20;;
48823;SDS011;34640;53.590;10.054;2024-03-08T09:12:46;37.03;;;16.85;;
48823;SDS011;34640;53.590;10.054;2024-03-08T09:15:20;34.75;;;15.68;;
48823;SDS011;34640;53.590;10.054;2024-03-08T09:17:53;41.70;;;16.90;;
48823;SDS011;34640;53.590;10.054;2024-03-08T09:20:27;41.30;;;17.90;;
48823;SDS011;34640;53.590;10.054;2024-03-08T09:23:05;38.85;;;17.00;;
48823;SDS011;34640;53.590;10.054;2024-03-08T09:25:39;40.88;;;17.88;;
48823;SDS011;34640;53.590;10.054;2024-03-08T09:28:17;38.28;;;17.45;;
48823;SDS011;34640;53.590;10.054;2024-03-08T09:30:51;35.72;;;16.38;;
48823;SDS011;34640;53.590;10.054;2024-03-08T09:33:31;37.28;;;16.55;;
48823;SDS011;34640;53.590;10.054;2024-03-08T09:36:08;39.17;;;16.13;;
48823;SDS011;34640;53.590;10.054;2024-03-08T09:38:41;39.88;;;16.77;;
48823;SDS011;34640;53.590;10.054;2024-03-08T09:41:14;37.47;;;17.52;;
48823;SDS011;34640;53.590;10.054;2024-03-08T09:43:49;36.08;;;16.92;;
48823;SDS011;34640;53.590;10.054;2024-03-08T09:46:22;41.53;;;16.70;;
48823;SDS011;34640;53.590;10.054;2024-03-08T09:48:56;34.47;;;16.30;;
48823;SDS011;34640;53.590;10.054;2024-03-08T09:51:30;32.80;;;14.95;;
48823;SDS011;34640;53.590;10.054;2024-03-08T09:54:07;36.00;;;16.45;;
48823;SDS011;34640;53.590;10.054;2024-03-08T09:56:51;34.97;;;15.98;;
48823;SDS011;34640;53.590;10.054;2024-03-08T09:59:24;30.00;;;14.90;;
48823;SDS011;34640;53.590;10.054;2024-03-08T10:02:14;36.90;;;16.60;;
48823;SDS011;34640;53.590;10.054;2024-03-08T10:04:48;32.83;;;15.15;;
48823;SDS011;34640;53.590;10.054;2024-03-08T10:07:26;34.10;;;16.00;;
48823;SDS011;34640;53.590;10.054;2024-03-08T10:10:00;38.38;;;15.52;;
48823;SDS011;34640;53.590;10.054;2024-03-08T10:12:33;37.97;;;16.83;;
48823;SDS011;34640;53.590;10.054;2024-03-08T10:15:07;38.47;;;16.25;;
48823;SDS011;34640;53.590;10.054;2024-03-08T10:17:40;35.83;;;16.23;;
48823;SDS011;34640;53.590;10.054;2024-03-08T10:20:17;35.35;;;16.08;;
48823;SDS011;34640;53.590;10.054;2024-03-08T10:22:52;33.15;;;15.95;;
48823;SDS011;34640;53.590;10.054;2024-03-08T10:25:40;32.65;;;15.70;;
48823;SDS011;34640;53.590;10.054;2024-03-08T10:28:14;35.67;;;16.88;;
48823;SDS011;34640;53.590;10.054;2024-03-08T10:30:51;35.10;;;17.15;;
48823;SDS011;34640;53.590;10.054;2024-03-08T10:33:24;33.72;;;15.88;;
48823;SDS011;34640;53.590;10.054;2024-03-08T10:35:57;36.28;;;16.63;;
48823;SDS011;34640;53.590;10.054;2024-03-08T10:38:32;35.78;;;16.60;;
48823;SDS011;34640;53.590;10.054;2024-03-08T10:41:08;32.05;;;15.32;;
48823;SDS011;34640;53.590;10.054;2024-03-08T10:43:46;33.63;;;15.00;;
48823;SDS011;34640;53.590;10.054;2024-03-08T10:46:41;37.67;;;15.23;;
48823;SDS011;34640;53.590;10.054;2024-03-08T10:49:31;30.95;;;14.38;;
48823;SDS011;34640;53.590;10.054;2024-03-08T10:52:11;36.28;;;14.75;;
48823;SDS011;34640;53.590;10.054;2024-03-08T10:54:46;32.92;;;14.52;;
48823;SDS011;34640;53.590;10.054;2024-03-08T10:57:21;32.63;;;14.25;;
48823;SDS011;34640;53.590;10.054;2024-03-08T10:59:58;29.88;;;13.32;;
48823;SDS011;34640;53.590;10.054;2024-03-08T11:02:43;28.90;;;14.13;;
48823;SDS011;34640;53.590;10.054;2024-03-08T11:05:31;30.60;;;13.98;;
48823;SDS011;34640;53.590;10.054;2024-03-08T11:11:04;28.08;;;13.38;;
48823;SDS011;34640;53.590;10.054;2024-03-08T11:13:39;28.38;;;13.27;;
48823;SDS011;34640;53.590;10.054;2024-03-08T11:19:24;31.17;;;14.90;;
48823;SDS011;34640;53.590;10.054;2024-03-08T11:22:03;31.60;;;14.02;;
48823;SDS011;34640;53.590;10.054;2024-03-08T11:24:36;30.02;;;14.77;;
48823;SDS011;34640;53.590;10.054;2024-03-08T11:27:16;27.90;;;12.73;;
48823;SDS011;34640;53.590;10.054;2024-03-08T11:30:01;28.17;;;13.65;;
48823;SDS011;34640;53.590;10.054;2024-03-08T11:32:48;29.58;;;13.13;;
48823;SDS011;34640;53.590;10.054;2024-03-08T11:35:24;29.17;;;12.90;;
48823;SDS011;34640;53.590;10.054;2024-03-08T11:37:57;31.38;;;13.55;;
48823;SDS011;34640;53.590;10.054;2024-03-08T11:40:32;26.08;;;12.43;;
48823;SDS011;34640;53.590;10.054;2024-03-08T11:43:08;25.40;;;12.63;;
48823;SDS011;34640;53.590;10.054;2024-03-08T11:45:42;30.00;;;13.95;;
48823;SDS011;34640;53.590;10.054;2024-03-08T11:48:15;27.02;;;12.88;;
48823;SDS011;34640;53.590;10.054;2024-03-08T11:50:52;30.95;;;13.68;;
48823;SDS011;34640;53.590;10.054;2024-03-08T11:53:33;28.48;;;11.90;;
48823;SDS011;34640;53.590;10.054;2024-03-08T11:56:08;25.17;;;12.10;;
48823;SDS011;34640;53.590;10.054;2024-03-08T11:58:52;28.77;;;12.32;;
48823;SDS011;34640;53.590;10.054;2024-03-08T12:01:29;26.88;;;12.93;;
48823;SDS011;34640;53.590;10.054;2024-03-08T12:04:03;27.38;;;12.20;;
48823;SDS011;34640;53.590;10.054;2024-03-08T12:06:38;25.85;;;12.85;;
48823;SDS011;34640;53.590;10.054;2024-03-08T12:09:12;26.20;;;12.50;;
48823;SDS011;34640;53.590;10.054;2024-03-08T12:11:47;27.13;;;12.27;;
48823;SDS011;34640;53.590;10.054;2024-03-08T12:14:21;26.40;;;12.20;;
48823;SDS011;34640;53.590;10.054;2024-03-08T12:16:56;28.15;;;13.43;;
48823;SDS011;34640;53.590;10.054;2024-03-08T12:19:30;29.92;;;13.18;;
48823;SDS011;34640;53.590;10.054;2024-03-08T12:22:07;25.88;;;12.13;;
48823;SDS011;34640;53.590;10.054;2024-03-08T12:24:42;23.45;;;11.70;;
48823;SDS011;34640;53.590;10.054;2024-03-08T12:27:19;29.42;;;12.32;;
48823;SDS011;34640;53.590;10.054;2024-03-08T12:29:54;29.38;;;13.15;;
48823;SDS011;34640;53.590;10.054;2024-03-08T12:32:27;26.05;;;12.40;;
48823;SDS011;34640;53.590;10.054;2024-03-08T12:35:01;26.25;;;12.85;;
48823;SDS011;34640;53.590;10.054;2024-03-08T12:37:36;25.98;;;11.57;;
48823;SDS011;34640;53.590;10.054;2024-03-08T12:40:10;23.63;;;12.05;;
48823;SDS011;34640;53.590;10.054;2024-03-08T12:42:48;29.67;;;12.90;;
48823;SDS011;34640;53.590;10.054;2024-03-08T12:45:22;28.05;;;13.20;;
48823;SDS011;34640;53.590;10.054;2024-03-08T12:47:55;26.88;;;11.40;;
48823;SDS011;34640;53.590;10.054;2024-03-08T12:50:30;26.77;;;12.40;;
48823;SDS011;34640;53.590;10.054;2024-03-08T12:53:03;25.88;;;11.35;;
48823;SDS011;34640;53.590;10.054;2024-03-08T12:55:39;26.58;;;11.77;;
48823;SDS011;34640;53.590;10.054;2024-03-08T12:58:12;25.05;;;11.63;;
48823;SDS011;34640;53.590;10.054;2024-03-08T13:00:51;22.42;;;10.90;;
48823;SDS011;34640;53.590;10.054;2024-03-08T13:03:24;23.98;;;11.88;;
48823;SDS011;34640;53.590;10.054;2024-03-08T13:05:58;26.77;;;12.93;;
48823;SDS011;34640;53.590;10.054;2024-03-08T13:08:31;21.75;;;11.07;;
48823;SDS011;34640;53.590;10.054;2024-03-08T13:11:07;26.80;;;13.00;;
48823;SDS011;34640;53.590;10.054;2024-03-08T13:13:43;23.63;;;12.05;;
48823;SDS011;34640;53.590;10.054;2024-03-08T13:16:17;27.67;;;12.00;;
48823;SDS011;34640;53.590;10.054;2024-03-08T13:18:51;22.27;;;11.88;;
48823;SDS011;34640;53.590;10.054;2024-03-08T13:21:25;24.83;;;12.63;;
48823;SDS011;34640;53.590;10.054;2024-03-08T13:23:58;30.90;;;13.07;;
48823;SDS011;34640;53.590;10.054;2024-03-08T13:26:33;28.17;;;12.23;;
48823;SDS011;34640;53.590;10.054;2024-03-08T13:29:06;27.42;;;11.52;;
48823;SDS011;34640;53.590;10.054;2024-03-08T13:31:41;24.33;;;12.48;;
48823;SDS011;34640;53.590;10.054;2024-03-08T13:34:14;26.17;;;11.95;;
48823;SDS011;34640;53.590;10.054;2024-03-08T13:36:47;21.13;;;10.73;;
48823;SDS011;34640;53.590;10.054;2024-03-08T13:39:25;26.35;;;11.30;;
48823;SDS011;34640;53.590;10.054;2024-03-08T13:41:58;21.60;;;10.60;;
48823;SDS011;34640;53.590;10.054;2024-03-08T13:44:31;20.73;;;9.93;;
48823;SDS011;34640;53.590;10.054;2024-03-08T13:47:06;24.95;;;11.88;;
48823;SDS011;34640;53.590;10.054;2024-03-08T13:49:39;23.75;;;11.90;;
48823;SDS011;34640;53.590;10.054;2024-03-08T13:52:12;21.95;;;10.57;;
48823;SDS011;34640;53.590;10.054;2024-03-08T13:54:47;25.55;;;11.90;;
48823;SDS011;34640;53.590;10.054;2024-03-08T13:57:21;23.25;;;11.68;;
48823;SDS011;34640;53.590;10.054;2024-03-08T13:59:55;27.70;;;11.20;;
48823;SDS011;34640;53.590;10.054;2024-03-08T14:02:29;23.17;;;10.60;;
48823;SDS011;34640;53.590;10.054;2024-03-08T14:05:03;21.30;;;11.45;;
48823;SDS011;34640;53.590;10.054;2024-03-08T14:07:36;22.00;;;11.35;;
48823;SDS011;34640;53.590;10.054;2024-03-08T14:10:10;23.52;;;11.13;;
48823;SDS011;34640;53.590;10.054;2024-03-08T14:12:48;19.38;;;10.13;;
48823;SDS011;34640;53.590;10.054;2024-03-08T14:15:22;26.85;;;12.57;;
48823;SDS011;34640;53.590;10.054;2024-03-08T14:17:57;24.52;;;10.55;;
48823;SDS011;34640;53.590;10.054;2024-03-08T14:20:31;25.00;;;10.57;;
48823;SDS011;34640;53.590;10.054;2024-03-08T14:23:04;25.45;;;10.50;;
48823;SDS011;34640;53.590;10.054;2024-03-08T14:25:39;23.55;;;11.65;;
48823;SDS011;34640;53.590;10.054;2024-03-08T14:28:12;24.52;;;11.48;;
48823;SDS011;34640;53.590;10.054;2024-03-08T14:30:46;23.50;;;11.48;;
48823;SDS011;34640;53.590;10.054;2024-03-08T14:33:20;24.70;;;12.15;;
48823;SDS011;34640;53.590;10.054;2024-03-08T14:35:53;28.85;;;13.88;;
48823;SDS011;34640;53.590;10.054;2024-03-08T14:38:27;28.38;;;12.10;;
48823;SDS011;34640;53.590;10.054;2024-03-08T14:41:01;26.23;;;12.77;;
48823;SDS011;34640;53.590;10.054;2024-03-08T14:43:42;25.45;;;12.38;;
48823;SDS011;34640;53.590;10.054;2024-03-08T14:46:16;28.60;;;13.57;;
48823;SDS011;34640;53.590;10.054;2024-03-08T14:48:51;27.50;;;13.18;;
48823;SDS011;34640;53.590;10.054;2024-03-08T14:51:24;25.38;;;12.45;;
48823;SDS011;34640;53.590;10.054;2024-03-08T14:53:59;30.73;;;14.18;;
48823;SDS011;34640;53.590;10.054;2024-03-08T14:56:34;27.30;;;12.80;;
48823;SDS011;34640;53.590;10.054;2024-03-08T14:59:07;26.90;;;12.43;;
48823;SDS011;34640;53.590;10.054;2024-03-08T15:01:41;24.92;;;11.57;;